sensor_id;sensor_type;location;lat;lon;timestamp;P1;durP1;ratioP1;P2;durP2;ratioP2
69569;SDS011;56781;42.292;23.146;2024-02-04T00:00:04;47.72;;;15.55;;
69569;SDS011;56781;42.292;23.146;2024-02-04T00:02:34;30.95;;;12.82;;
69569;SDS011;56781;42.292;23.146;2024-02-04T00:05:03;31.23;;;11.60;;
69569;SDS011;56781;42.292;23.146;2024-02-04T00:07:31;37.73;;;12.07;;
69569;SDS011;56781;42.292;23.146;2024-02-04T00:10:00;22.25;;;9.60;;
69569;SDS011;56781;42.292;23.146;2024-02-04T00:12:30;34.13;;;13.13;;
69569;SDS011;56781;42.292;23.146;2024-02-04T00:14:59;43.67;;;16.48;;
69569;SDS011;56781;42.292;23.146;2024-02-04T00:17:31;44.63;;;16.92;;
69569;SDS011;56781;42.292;23.146;2024-02-04T00:20:00;44.43;;;17.93;;
69569;SDS011;56781;42.292;23.146;2024-02-04T00:22:32;42.40;;;13.48;;
69569;SDS011;56781;42.292;23.146;2024-02-04T00:25:01;28.90;;;11.88;;
69569;SDS011;56781;42.292;23.146;2024-02-04T00:27:33;29.02;;;10.68;;
69569;SDS011;56781;42.292;23.146;2024-02-04T00:30:02;30.60;;;12.20;;
69569;SDS011;56781;42.292;23.146;2024-02-04T00:32:31;39.00;;;13.93;;
69569;SDS011;56781;42.292;23.146;2024-02-04T00:34:59;40.40;;;14.07;;
69569;SDS011;56781;42.292;23.146;2024-02-04T00:37:29;46.92;;;15.48;;
69569;SDS011;56781;42.292;23.146;2024-02-04T00:39:58;68.72;;;21.27;;
69569;SDS011;56781;42.292;23.146;2024-02-04T00:42:27;59.75;;;19.55;;
69569;SDS011;56781;42.292;23.146;2024-02-04T00:44:58;50.77;;;17.07;;
69569;SDS011;56781;42.292;23.146;2024-02-04T00:47:26;56.70;;;18.95;;
69569;SDS011;56781;42.292;23.146;2024-02-04T00:49:55;49.40;;;18.50;;
69569;SDS011;56781;42.292;23.146;2024-02-04T00:52:24;51.22;;;16.92;;
69569;SDS011;56781;42.292;23.146;2024-02-04T00:54:52;40.42;;;16.00;;
69569;SDS011;56781;42.292;23.146;2024-02-04T00:57:20;62.27;;;19.70;;
69569;SDS011;56781;42.292;23.146;2024-02-04T00:59:49;50.15;;;18.10;;
69569;SDS011;56781;42.292;23.146;2024-02-04T01:02:20;24.27;;;9.85;;
69569;SDS011;56781;42.292;23.146;2024-02-04T01:04:48;29.13;;;12.13;;
69569;SDS011;56781;42.292;23.146;2024-02-04T01:07:18;100.47;;;29.55;;
69569;SDS011;56781;42.292;23.146;2024-02-04T01:09:47;28.30;;;11.23;;
69569;SDS011;56781;42.292;23.146;2024-02-04T01:12:15;29.27;;;11.55;;
69569;SDS011;56781;42.292;23.146;2024-02-04T01:14:44;32.80;;;12.73;;
69569;SDS011;56781;42.292;23.146;2024-02-04T01:17:12;44.15;;;16.50;;
69569;SDS011;56781;42.292;23.146;2024-02-04T01:19:42;36.70;;;13.73;;
69569;SDS011;56781;42.292;23.146;2024-02-04T01:22:11;29.63;;;11.50;;
69569;SDS011;56781;42.292;23.146;2024-02-04T01:24:40;38.78;;;13.23;;
69569;SDS011;56781;42.292;23.146;2024-02-04T01:27:09;44.72;;;15.32;;
69569;SDS011;56781;42.292;23.146;2024-02-04T01:29:38;75.60;;;22.73;;
69569;SDS011;56781;42.292;23.146;2024-02-04T01:32:06;56.60;;;18.65;;
69569;SDS011;56781;42.292;23.146;2024-02-04T01:34:35;47.57;;;18.13;;
69569;SDS011;56781;42.292;23.146;2024-02-04T01:37:06;40.03;;;15.18;;
69569;SDS011;56781;42.292;23.146;2024-02-04T01:39:34;42.83;;;16.30;;
69569;SDS011;56781;42.292;23.146;2024-02-04T01:42:03;23.38;;;8.73;;
69569;SDS011;56781;42.292;23.146;2024-02-04T01:44:32;24.23;;;10.60;;
69569;SDS011;56781;42.292;23.146;2024-02-04T01:47:01;38.10;;;13.37;;
69569;SDS011;56781;42.292;23.146;2024-02-04T01:49:30;39.25;;;14.68;;
69569;SDS011;56781;42.292;23.146;2024-02-04T01:51:59;38.25;;;13.95;;
69569;SDS011;56781;42.292;23.146;2024-02-04T01:54:31;34.45;;;14.23;;
69569;SDS011;56781;42.292;23.146;2024-02-04T01:57:00;39.60;;;15.45;;
69569;SDS011;56781;42.292;23.146;2024-02-04T01:59:29;82.60;;;26.37;;
69569;SDS011;56781;42.292;23.146;2024-02-04T02:01:58;64.65;;;22.02;;
69569;SDS011;56781;42.292;23.146;2024-02-04T02:04:27;39.67;;;15.85;;
69569;SDS011;56781;42.292;23.146;2024-02-04T02:06:56;37.80;;;12.32;;
69569;SDS011;56781;42.292;23.146;2024-02-04T02:09:27;22.38;;;9.98;;
69569;SDS011;56781;42.292;23.146;2024-02-04T02:12:00;23.07;;;8.97;;
69569;SDS011;56781;42.292;23.146;2024-02-04T02:14:35;34.38;;;13.00;;
69569;SDS011;56781;42.292;23.146;2024-02-04T02:17:10;37.30;;;14.93;;
69569;SDS011;56781;42.292;23.146;2024-02-04T02:19:46;34.20;;;14.68;;
69569;SDS011;56781;42.292;23.146;2024-02-04T02:22:24;61.95;;;24.05;;
69569;SDS011;56781;42.292;23.146;2024-02-04T02:24:58;33.83;;;14.83;;
69569;SDS011;56781;42.292;23.146;2024-02-04T02:27:27;30.30;;;11.88;;
69569;SDS011;56781;42.292;23.146;2024-02-04T02:29:56;30.45;;;13.65;;
69569;SDS011;56781;42.292;23.146;2024-02-04T02:32:24;33.33;;;15.15;;
69569;SDS011;56781;42.292;23.146;2024-02-04T02:34:53;32.72;;;14.82;;
69569;SDS011;56781;42.292;23.146;2024-02-04T02:37:25;33.13;;;13.50;;
69569;SDS011;56781;42.292;23.146;2024-02-04T02:40:00;29.63;;;12.02;;
69569;SDS011;56781;42.292;23.146;2024-02-04T02:42:33;24.67;;;11.40;;
69569;SDS011;56781;42.292;23.146;2024-02-04T02:45:04;20.65;;;8.90;;
69569;SDS011;56781;42.292;23.146;2024-02-04T02:47:34;26.83;;;10.93;;
69569;SDS011;56781;42.292;23.146;2024-02-04T02:50:05;23.60;;;10.83;;
69569;SDS011;56781;42.292;23.146;2024-02-04T02:52:35;29.83;;;11.68;;
69569;SDS011;56781;42.292;23.146;2024-02-04T02:55:06;33.10;;;13.10;;
69569;SDS011;56781;42.292;23.146;2024-02-04T02:57:34;31.98;;;13.20;;
69569;SDS011;56781;42.292;23.146;2024-02-04T03:00:03;37.13;;;15.27;;
69569;SDS011;56781;42.292;23.146;2024-02-04T03:02:33;59.27;;;26.03;;
69569;SDS011;56781;42.292;23.146;2024-02-04T03:05:02;33.13;;;13.60;;
69569;SDS011;56781;42.292;23.146;2024-02-04T03:07:30;30.25;;;13.88;;
69569;SDS011;56781;42.292;23.146;2024-02-04T03:09:59;30.92;;;13.48;;
69569;SDS011;56781;42.292;23.146;2024-02-04T03:12:29;50.00;;;21.23;;
69569;SDS011;56781;42.292;23.146;2024-02-04T03:14:58;35.53;;;14.63;;
69569;SDS011;56781;42.292;23.146;2024-02-04T03:17:26;27.23;;;11.98;;
69569;SDS011;56781;42.292;23.146;2024-02-04T03:19:55;30.35;;;12.88;;
69569;SDS011;56781;42.292;23.146;2024-02-04T03:22:24;37.47;;;15.35;;
69569;SDS011;56781;42.292;23.146;2024-02-04T03:24:52;43.15;;;17.35;;
69569;SDS011;56781;42.292;23.146;2024-02-04T03:27:21;30.27;;;12.53;;
69569;SDS011;56781;42.292;23.146;2024-02-04T03:29:51;58.33;;;21.58;;
69569;SDS011;56781;42.292;23.146;2024-02-04T03:32:19;43.70;;;17.80;;
69569;SDS011;56781;42.292;23.146;2024-02-04T03:34:48;31.15;;;14.13;;
69569;SDS011;56781;42.292;23.146;2024-02-04T03:37:17;44.83;;;18.83;;
69569;SDS011;56781;42.292;23.146;2024-02-04T03:39:45;38.60;;;16.60;;
69569;SDS011;56781;42.292;23.146;2024-02-04T03:42:14;39.17;;;14.80;;
69569;SDS011;56781;42.292;23.146;2024-02-04T03:44:43;39.13;;;16.30;;
69569;SDS011;56781;42.292;23.146;2024-02-04T03:47:13;42.30;;;16.60;;
69569;SDS011;56781;42.292;23.146;2024-02-04T03:49:42;41.58;;;16.77;;
69569;SDS011;56781;42.292;23.146;2024-02-04T03:52:11;40.13;;;16.80;;
69569;SDS011;56781;42.292;23.146;2024-02-04T03:54:39;40.75;;;17.58;;
69569;SDS011;56781;42.292;23.146;2024-02-04T03:57:08;40.88;;;17.38;;
69569;SDS011;56781;42.292;23.146;2024-02-04T03:59:36;38.97;;;16.55;;
69569;SDS011;56781;42.292;23.146;2024-02-04T04:02:05;39.80;;;15.95;;
69569;SDS011;56781;42.292;23.146;2024-02-04T04:04:35;30.83;;;12.80;;
69569;SDS011;56781;42.292;23.146;2024-02-04T04:07:04;31.95;;;12.98;;
69569;SDS011;56781;42.292;23.146;2024-02-04T04:09:33;33.00;;;14.98;;
69569;SDS011;56781;42.292;23.146;2024-02-04T04:12:01;30.90;;;12.85;;
69569;SDS011;56781;42.292;23.146;2024-02-04T04:14:30;38.15;;;15.30;;
69569;SDS011;56781;42.292;23.146;2024-02-04T04:16:59;24.70;;;10.67;;
69569;SDS011;56781;42.292;23.146;2024-02-04T04:19:27;20.23;;;8.00;;
69569;SDS011;56781;42.292;23.146;2024-02-04T04:21:57;20.05;;;8.48;;
69569;SDS011;56781;42.292;23.146;2024-02-04T04:24:26;25.30;;;11.30;;
69569;SDS011;56781;42.292;23.146;2024-02-04T04:26:55;33.75;;;14.40;;
69569;SDS011;56781;42.292;23.146;2024-02-04T04:29:23;30.30;;;12.13;;
69569;SDS011;56781;42.292;23.146;2024-02-04T04:31:53;29.92;;;10.52;;
69569;SDS011;56781;42.292;23.146;2024-02-04T04:34:22;23.38;;;10.98;;
69569;SDS011;56781;42.292;23.146;2024-02-04T04:36:51;25.70;;;11.48;;
69569;SDS011;56781;42.292;23.146;2024-02-04T04:39:21;38.78;;;19.38;;
69569;SDS011;56781;42.292;23.146;2024-02-04T04:41:50;23.30;;;9.80;;
69569;SDS011;56781;42.292;23.146;2024-02-04T04:44:18;26.63;;;11.25;;
69569;SDS011;56781;42.292;23.146;2024-02-04T04:46:46;26.90;;;11.98;;
69569;SDS011;56781;42.292;23.146;2024-02-04T04:49:15;27.20;;;10.85;;
69569;SDS011;56781;42.292;23.146;2024-02-04T04:51:44;52.55;;;17.08;;
69569;SDS011;56781;42.292;23.146;2024-02-04T04:54:13;31.43;;;11.93;;
69569;SDS011;56781;42.292;23.146;2024-02-04T04:56:44;19.48;;;8.38;;
69569;SDS011;56781;42.292;23.146;2024-02-04T04:59:12;36.05;;;12.23;;
69569;SDS011;56781;42.292;23.146;2024-02-04T05:01:44;54.28;;;15.45;;
69569;SDS011;56781;42.292;23.146;2024-02-04T05:04:15;68.32;;;20.40;;
69569;SDS011;56781;42.292;23.146;2024-02-04T05:06:45;44.37;;;13.63;;
69569;SDS011;56781;42.292;23.146;2024-02-04T05:09:14;23.55;;;8.85;;
69569;SDS011;56781;42.292;23.146;2024-02-04T05:11:44;20.10;;;8.20;;
69569;SDS011;56781;42.292;23.146;2024-02-04T05:14:13;24.65;;;9.15;;
69569;SDS011;56781;42.292;23.146;2024-02-04T05:16:41;21.30;;;8.43;;
69569;SDS011;56781;42.292;23.146;2024-02-04T05:19:12;18.67;;;7.43;;
69569;SDS011;56781;42.292;23.146;2024-02-04T05:21:40;36.55;;;13.82;;
69569;SDS011;56781;42.292;23.146;2024-02-04T05:24:10;44.72;;;17.48;;
69569;SDS011;56781;42.292;23.146;2024-02-04T05:26:38;31.40;;;11.93;;
69569;SDS011;56781;42.292;23.146;2024-02-04T05:29:08;47.15;;;17.05;;
69569;SDS011;56781;42.292;23.146;2024-02-04T05:31:40;38.27;;;15.67;;
69569;SDS011;56781;42.292;23.146;2024-02-04T05:34:09;37.80;;;14.23;;
69569;SDS011;56781;42.292;23.146;2024-02-04T05:36:38;37.95;;;16.42;;
69569;SDS011;56781;42.292;23.146;2024-02-04T05:39:11;33.90;;;13.80;;
69569;SDS011;56781;42.292;23.146;2024-02-04T05:41:40;29.90;;;12.73;;
69569;SDS011;56781;42.292;23.146;2024-02-04T05:44:11;44.70;;;18.27;;
69569;SDS011;56781;42.292;23.146;2024-02-04T05:46:39;32.03;;;13.30;;
69569;SDS011;56781;42.292;23.146;2024-02-04T05:49:08;28.98;;;12.93;;
69569;SDS011;56781;42.292;23.146;2024-02-04T05:51:38;25.17;;;11.88;;
69569;SDS011;56781;42.292;23.146;2024-02-04T05:54:07;35.30;;;14.40;;
69569;SDS011;56781;42.292;23.146;2024-02-04T05:56:36;29.90;;;11.20;;
69569;SDS011;56781;42.292;23.146;2024-02-04T05:59:04;32.10;;;12.88;;
69569;SDS011;56781;42.292;23.146;2024-02-04T06:01:35;36.80;;;14.95;;
69569;SDS011;56781;42.292;23.146;2024-02-04T06:04:04;39.42;;;13.60;;
69569;SDS011;56781;42.292;23.146;2024-02-04T06:06:32;42.75;;;17.58;;
69569;SDS011;56781;42.292;23.146;2024-02-04T06:09:01;41.53;;;15.90;;
69569;SDS011;56781;42.292;23.146;2024-02-04T06:11:30;30.05;;;12.40;;
69569;SDS011;56781;42.292;23.146;2024-02-04T06:13:58;31.25;;;12.25;;
69569;SDS011;56781;42.292;23.146;2024-02-04T06:16:27;24.27;;;11.82;;
69569;SDS011;56781;42.292;23.146;2024-02-04T06:18:58;24.92;;;10.10;;
69569;SDS011;56781;42.292;23.146;2024-02-04T06:21:26;22.40;;;9.30;;
69569;SDS011;56781;42.292;23.146;2024-02-04T06:23:55;18.60;;;8.73;;
69569;SDS011;56781;42.292;23.146;2024-02-04T06:26:24;35.20;;;15.55;;
69569;SDS011;56781;42.292;23.146;2024-02-04T06:28:52;35.92;;;15.68;;
69569;SDS011;56781;42.292;23.146;2024-02-04T06:31:21;35.90;;;15.95;;
69569;SDS011;56781;42.292;23.146;2024-02-04T06:33:49;39.27;;;16.63;;
69569;SDS011;56781;42.292;23.146;2024-02-04T06:36:19;36.88;;;14.95;;
69569;SDS011;56781;42.292;23.146;2024-02-04T06:38:48;31.00;;;13.93;;
69569;SDS011;56781;42.292;23.146;2024-02-04T06:41:16;28.27;;;11.85;;
69569;SDS011;56781;42.292;23.146;2024-02-04T06:43:45;35.90;;;12.27;;
69569;SDS011;56781;42.292;23.146;2024-02-04T06:46:14;101.77;;;23.37;;
69569;SDS011;56781;42.292;23.146;2024-02-04T06:48:51;68.03;;;21.10;;
69569;SDS011;56781;42.292;23.146;2024-02-04T06:51:21;128.40;;;35.40;;
69569;SDS011;56781;42.292;23.146;2024-02-04T06:53:50;202.15;;;43.47;;
69569;SDS011;56781;42.292;23.146;2024-02-04T06:56:19;177.15;;;37.75;;
69569;SDS011;56781;42.292;23.146;2024-02-04T06:58:47;139.37;;;35.43;;
69569;SDS011;56781;42.292;23.146;2024-02-04T07:01:16;41.33;;;15.50;;
69569;SDS011;56781;42.292;23.146;2024-02-04T07:03:45;34.25;;;15.75;;
69569;SDS011;56781;42.292;23.146;2024-02-04T07:06:13;44.00;;;19.77;;
69569;SDS011;56781;42.292;23.146;2024-02-04T07:08:43;40.45;;;20.48;;
69569;SDS011;56781;42.292;23.146;2024-02-04T07:11:12;35.43;;;18.00;;
69569;SDS011;56781;42.292;23.146;2024-02-04T07:13:40;33.55;;;16.73;;
69569;SDS011;56781;42.292;23.146;2024-02-04T07:16:09;48.00;;;19.98;;
69569;SDS011;56781;42.292;23.146;2024-02-04T07:18:37;55.28;;;19.13;;
69569;SDS011;56781;42.292;23.146;2024-02-04T07:21:06;41.55;;;17.73;;
69569;SDS011;56781;42.292;23.146;2024-02-04T07:23:35;37.47;;;16.23;;
69569;SDS011;56781;42.292;23.146;2024-02-04T07:26:04;35.42;;;16.08;;
69569;SDS011;56781;42.292;23.146;2024-02-04T07:28:33;37.22;;;17.52;;
69569;SDS011;56781;42.292;23.146;2024-02-04T07:31:02;35.42;;;16.70;;
69569;SDS011;56781;42.292;23.146;2024-02-04T07:33:31;31.95;;;17.05;;
69569;SDS011;56781;42.292;23.146;2024-02-04T07:35:59;32.20;;;17.43;;
69569;SDS011;56781;42.292;23.146;2024-02-04T07:38:28;33.92;;;17.05;;
69569;SDS011;56781;42.292;23.146;2024-02-04T07:40:56;27.77;;;13.73;;
69569;SDS011;56781;42.292;23.146;2024-02-04T07:43:27;120.50;;;31.00;;
69569;SDS011;56781;42.292;23.146;2024-02-04T07:45:56;65.15;;;22.42;;
69569;SDS011;56781;42.292;23.146;2024-02-04T07:48:28;55.70;;;21.20;;
69569;SDS011;56781;42.292;23.146;2024-02-04T07:50:56;72.20;;;27.63;;
69569;SDS011;56781;42.292;23.146;2024-02-04T07:53:25;64.45;;;26.02;;
69569;SDS011;56781;42.292;23.146;2024-02-04T07:55:53;61.05;;;26.42;;
69569;SDS011;56781;42.292;23.146;2024-02-04T07:58:22;76.70;;;34.72;;
69569;SDS011;56781;42.292;23.146;2024-02-04T08:00:52;84.93;;;39.20;;
69569;SDS011;56781;42.292;23.146;2024-02-04T08:03:20;82.97;;;38.15;;
69569;SDS011;56781;42.292;23.146;2024-02-04T08:05:49;96.28;;;42.65;;
69569;SDS011;56781;42.292;23.146;2024-02-04T08:08:17;100.13;;;45.47;;
69569;SDS011;56781;42.292;23.146;2024-02-04T08:10:46;133.00;;;52.13;;
69569;SDS011;56781;42.292;23.146;2024-02-04T08:13:14;136.50;;;54.20;;
69569;SDS011;56781;42.292;23.146;2024-02-04T08:15:43;120.18;;;50.25;;
69569;SDS011;56781;42.292;23.146;2024-02-04T08:18:13;108.45;;;46.67;;
69569;SDS011;56781;42.292;23.146;2024-02-04T08:20:41;98.75;;;44.38;;
69569;SDS011;56781;42.292;23.146;2024-02-04T08:23:10;101.78;;;47.22;;
69569;SDS011;56781;42.292;23.146;2024-02-04T08:25:38;123.67;;;54.90;;
69569;SDS011;56781;42.292;23.146;2024-02-04T08:28:07;149.32;;;64.80;;
69569;SDS011;56781;42.292;23.146;2024-02-04T08:30:35;130.13;;;55.70;;
69569;SDS011;56781;42.292;23.146;2024-02-04T08:33:04;112.47;;;52.42;;
69569;SDS011;56781;42.292;23.146;2024-02-04T08:35:34;92.63;;;39.17;;
69569;SDS011;56781;42.292;23.146;2024-02-04T08:38:02;157.07;;;48.27;;
69569;SDS011;56781;42.292;23.146;2024-02-04T08:40:31;121.40;;;44.50;;
69569;SDS011;56781;42.292;23.146;2024-02-04T08:42:59;70.38;;;28.60;;
69569;SDS011;56781;42.292;23.146;2024-02-04T08:45:27;82.13;;;35.40;;
69569;SDS011;56781;42.292;23.146;2024-02-04T08:47:56;71.85;;;33.13;;
69569;SDS011;56781;42.292;23.146;2024-02-04T08:50:24;32.53;;;15.73;;
69569;SDS011;56781;42.292;23.146;2024-02-04T08:52:54;35.80;;;15.77;;
69569;SDS011;56781;42.292;23.146;2024-02-04T08:55:22;24.60;;;10.82;;
69569;SDS011;56781;42.292;23.146;2024-02-04T08:57:50;58.58;;;24.58;;
69569;SDS011;56781;42.292;23.146;2024-02-04T09:00:20;57.42;;;23.80;;
69569;SDS011;56781;42.292;23.146;2024-02-04T09:02:49;65.90;;;30.17;;
69569;SDS011;56781;42.292;23.146;2024-02-04T09:05:17;34.38;;;17.08;;
69569;SDS011;56781;42.292;23.146;2024-02-04T09:07:47;49.85;;;23.65;;
69569;SDS011;56781;42.292;23.146;2024-02-04T09:10:17;58.85;;;21.52;;
69569;SDS011;56781;42.292;23.146;2024-02-04T09:12:45;60.80;;;28.35;;
69569;SDS011;56781;42.292;23.146;2024-02-04T09:15:14;48.87;;;23.53;;
69569;SDS011;56781;42.292;23.146;2024-02-04T09:17:42;46.00;;;23.45;;
69569;SDS011;56781;42.292;23.146;2024-02-04T09:20:11;56.05;;;26.98;;
69569;SDS011;56781;42.292;23.146;2024-02-04T09:22:40;166.55;;;70.95;;
69569;SDS011;56781;42.292;23.146;2024-02-04T09:25:09;101.35;;;45.45;;
69569;SDS011;56781;42.292;23.146;2024-02-04T09:27:39;83.80;;;31.03;;
69569;SDS011;56781;42.292;23.146;2024-02-04T09:30:08;31.67;;;13.70;;
69569;SDS011;56781;42.292;23.146;2024-02-04T09:32:37;18.95;;;8.55;;
69569;SDS011;56781;42.292;23.146;2024-02-04T09:35:05;5.97;;;2.92;;
69569;SDS011;56781;42.292;23.146;2024-02-04T09:37:36;5.30;;;2.30;;
69569;SDS011;56781;42.292;23.146;2024-02-04T09:40:05;21.10;;;5.43;;
69569;SDS011;56781;42.292;23.146;2024-02-04T09:42:34;9.98;;;3.83;;
69569;SDS011;56781;42.292;23.146;2024-02-04T09:45:04;3.67;;;2.00;;
69569;SDS011;56781;42.292;23.146;2024-02-04T09:47:34;13.40;;;4.70;;
69569;SDS011;56781;42.292;23.146;2024-02-04T09:50:03;7.30;;;2.67;;
69569;SDS011;56781;42.292;23.146;2024-02-04T09:52:33;4.57;;;2.10;;
69569;SDS011;56781;42.292;23.146;2024-02-04T09:55:04;19.80;;;5.97;;
69569;SDS011;56781;42.292;23.146;2024-02-04T09:57:34;14.82;;;7.22;;
69569;SDS011;56781;42.292;23.146;2024-02-04T10:00:05;7.53;;;4.03;;
69569;SDS011;56781;42.292;23.146;2024-02-04T10:02:35;6.20;;;3.03;;
69569;SDS011;56781;42.292;23.146;2024-02-04T10:05:04;14.60;;;8.43;;
69569;SDS011;56781;42.292;23.146;2024-02-04T10:07:34;13.77;;;4.90;;
69569;SDS011;56781;42.292;23.146;2024-02-04T10:10:02;29.95;;;8.52;;
69569;SDS011;56781;42.292;23.146;2024-02-04T10:12:31;10.70;;;4.50;;
69569;SDS011;56781;42.292;23.146;2024-02-04T10:15:02;11.90;;;3.80;;
69569;SDS011;56781;42.292;23.146;2024-02-04T10:17:32;10.57;;;3.40;;
69569;SDS011;56781;42.292;23.146;2024-02-04T10:20:00;25.45;;;6.97;;
69569;SDS011;56781;42.292;23.146;2024-02-04T10:22:29;12.70;;;4.72;;
69569;SDS011;56781;42.292;23.146;2024-02-04T10:25:05;10.60;;;3.70;;
69569;SDS011;56781;42.292;23.146;2024-02-04T10:27:34;7.65;;;3.38;;
69569;SDS011;56781;42.292;23.146;2024-02-04T10:30:04;4.50;;;2.23;;
69569;SDS011;56781;42.292;23.146;2024-02-04T10:32:35;15.35;;;4.60;;
69569;SDS011;56781;42.292;23.146;2024-02-04T10:35:03;11.93;;;5.25;;
69569;SDS011;56781;42.292;23.146;2024-02-04T10:37:32;8.57;;;4.03;;
69569;SDS011;56781;42.292;23.146;2024-02-04T10:40:01;8.27;;;3.13;;
69569;SDS011;56781;42.292;23.146;2024-02-04T10:42:29;5.00;;;1.90;;
69569;SDS011;56781;42.292;23.146;2024-02-04T10:44:59;5.28;;;2.38;;
69569;SDS011;56781;42.292;23.146;2024-02-04T10:47:30;8.63;;;3.72;;
69569;SDS011;56781;42.292;23.146;2024-02-04T10:50:02;6.55;;;3.40;;
69569;SDS011;56781;42.292;23.146;2024-02-04T10:52:32;7.13;;;2.75;;
69569;SDS011;56781;42.292;23.146;2024-02-04T10:55:05;9.37;;;3.23;;
69569;SDS011;56781;42.292;23.146;2024-02-04T10:57:37;9.45;;;3.50;;
69569;SDS011;56781;42.292;23.146;2024-02-04T11:00:07;12.27;;;4.45;;
69569;SDS011;56781;42.292;23.146;2024-02-04T11:02:39;10.02;;;3.83;;
69569;SDS011;56781;42.292;23.146;2024-02-04T11:05:14;6.20;;;2.08;;
69569;SDS011;56781;42.292;23.146;2024-02-04T11:07:44;6.90;;;4.23;;
69569;SDS011;56781;42.292;23.146;2024-02-04T11:10:13;6.05;;;2.88;;
69569;SDS011;56781;42.292;23.146;2024-02-04T11:12:42;4.25;;;1.90;;
69569;SDS011;56781;42.292;23.146;2024-02-04T11:15:13;7.20;;;4.15;;
69569;SDS011;56781;42.292;23.146;2024-02-04T11:17:57;6.85;;;2.92;;
69569;SDS011;56781;42.292;23.146;2024-02-04T11:20:46;6.30;;;2.63;;
69569;SDS011;56781;42.292;23.146;2024-02-04T11:23:35;5.95;;;3.25;;
69569;SDS011;56781;42.292;23.146;2024-02-04T11:26:10;6.30;;;3.22;;
69569;SDS011;56781;42.292;23.146;2024-02-04T11:28:40;8.30;;;4.78;;
69569;SDS011;56781;42.292;23.146;2024-02-04T11:31:14;7.25;;;3.40;;
69569;SDS011;56781;42.292;23.146;2024-02-04T11:33:44;23.17;;;13.70;;
69569;SDS011;56781;42.292;23.146;2024-02-04T11:36:15;6.22;;;2.63;;
69569;SDS011;56781;42.292;23.146;2024-02-04T11:38:47;11.77;;;7.43;;
69569;SDS011;56781;42.292;23.146;2024-02-04T11:41:21;6.85;;;3.05;;
69569;SDS011;56781;42.292;23.146;2024-02-04T11:43:52;5.75;;;2.42;;
69569;SDS011;56781;42.292;23.146;2024-02-04T11:46:27;6.67;;;3.10;;
69569;SDS011;56781;42.292;23.146;2024-02-04T11:48:56;6.57;;;2.50;;
69569;SDS011;56781;42.292;23.146;2024-02-04T11:51:26;8.10;;;2.83;;
69569;SDS011;56781;42.292;23.146;2024-02-04T11:53:55;3.90;;;1.70;;
69569;SDS011;56781;42.292;23.146;2024-02-04T11:56:25;7.90;;;3.80;;
69569;SDS011;56781;42.292;23.146;2024-02-04T11:58:53;7.10;;;2.90;;
69569;SDS011;56781;42.292;23.146;2024-02-04T12:01:22;4.80;;;1.77;;
69569;SDS011;56781;42.292;23.146;2024-02-04T12:03:52;3.08;;;1.10;;
69569;SDS011;56781;42.292;23.146;2024-02-04T12:06:20;3.05;;;1.13;;
69569;SDS011;56781;42.292;23.146;2024-02-04T12:08:50;4.25;;;1.45;;
69569;SDS011;56781;42.292;23.146;2024-02-04T12:11:19;3.43;;;1.40;;
69569;SDS011;56781;42.292;23.146;2024-02-04T12:13:50;4.40;;;1.92;;
69569;SDS011;56781;42.292;23.146;2024-02-04T12:16:19;7.82;;;2.97;;
69569;SDS011;56781;42.292;23.146;2024-02-04T12:18:48;3.83;;;2.13;;
69569;SDS011;56781;42.292;23.146;2024-02-04T12:21:17;7.63;;;3.97;;
69569;SDS011;56781;42.292;23.146;2024-02-04T12:23:46;3.47;;;1.87;;
69569;SDS011;56781;42.292;23.146;2024-02-04T12:26:17;4.80;;;2.95;;
69569;SDS011;56781;42.292;23.146;2024-02-04T12:28:45;3.75;;;1.60;;
69569;SDS011;56781;42.292;23.146;2024-02-04T12:31:17;4.60;;;2.25;;
69569;SDS011;56781;42.292;23.146;2024-02-04T12:33:53;4.15;;;1.88;;
69569;SDS011;56781;42.292;23.146;2024-02-04T12:36:25;2.60;;;1.00;;
69569;SDS011;56781;42.292;23.146;2024-02-04T12:38:54;7.13;;;3.78;;
69569;SDS011;56781;42.292;23.146;2024-02-04T12:41:25;3.30;;;1.60;;
69569;SDS011;56781;42.292;23.146;2024-02-04T12:43:54;8.20;;;4.07;;
69569;SDS011;56781;42.292;23.146;2024-02-04T12:46:24;9.65;;;5.60;;
69569;SDS011;56781;42.292;23.146;2024-02-04T12:48:54;5.40;;;2.37;;
69569;SDS011;56781;42.292;23.146;2024-02-04T12:51:30;4.32;;;2.20;;
69569;SDS011;56781;42.292;23.146;2024-02-04T12:54:04;3.60;;;1.63;;
69569;SDS011;56781;42.292;23.146;2024-02-04T12:56:43;9.40;;;4.30;;
69569;SDS011;56781;42.292;23.146;2024-02-04T12:59:22;6.43;;;3.70;;
69569;SDS011;56781;42.292;23.146;2024-02-04T13:01:53;5.03;;;2.20;;
69569;SDS011;56781;42.292;23.146;2024-02-04T13:04:23;8.48;;;5.93;;
69569;SDS011;56781;42.292;23.146;2024-02-04T13:06:52;6.97;;;4.65;;
69569;SDS011;56781;42.292;23.146;2024-02-04T13:09:21;5.22;;;2.80;;
69569;SDS011;56781;42.292;23.146;2024-02-04T13:11:51;4.07;;;1.60;;
69569;SDS011;56781;42.292;23.146;2024-02-04T13:14:19;5.77;;;1.93;;
69569;SDS011;56781;42.292;23.146;2024-02-04T13:16:48;3.50;;;1.67;;
69569;SDS011;56781;42.292;23.146;2024-02-04T13:19:17;4.45;;;2.60;;
69569;SDS011;56781;42.292;23.146;2024-02-04T13:21:46;3.30;;;1.60;;
69569;SDS011;56781;42.292;23.146;2024-02-04T13:24:14;4.05;;;1.80;;
69569;SDS011;56781;42.292;23.146;2024-02-04T13:26:43;10.57;;;3.77;;
69569;SDS011;56781;42.292;23.146;2024-02-04T13:29:13;6.50;;;2.30;;
69569;SDS011;56781;42.292;23.146;2024-02-04T13:31:42;4.40;;;2.17;;
69569;SDS011;56781;42.292;23.146;2024-02-04T13:34:10;12.77;;;8.00;;
69569;SDS011;56781;42.292;23.146;2024-02-04T13:36:39;4.63;;;1.95;;
69569;SDS011;56781;42.292;23.146;2024-02-04T13:39:08;6.13;;;2.70;;
69569;SDS011;56781;42.292;23.146;2024-02-04T13:41:39;8.50;;;2.15;;
69569;SDS011;56781;42.292;23.146;2024-02-04T13:44:08;3.63;;;1.50;;
69569;SDS011;56781;42.292;23.146;2024-02-04T13:46:38;4.95;;;2.35;;
69569;SDS011;56781;42.292;23.146;2024-02-04T13:49:09;14.95;;;7.70;;
69569;SDS011;56781;42.292;23.146;2024-02-04T13:51:39;6.83;;;2.10;;
69569;SDS011;56781;42.292;23.146;2024-02-04T13:54:11;3.90;;;1.70;;
69569;SDS011;56781;42.292;23.146;2024-02-04T13:56:44;8.25;;;3.22;;
69569;SDS011;56781;42.292;23.146;2024-02-04T13:59:13;13.25;;;5.68;;
69569;SDS011;56781;42.292;23.146;2024-02-04T14:01:43;31.10;;;12.50;;
69569;SDS011;56781;42.292;23.146;2024-02-04T14:04:13;7.87;;;3.30;;
69569;SDS011;56781;42.292;23.146;2024-02-04T14:06:41;10.05;;;4.10;;
69569;SDS011;56781;42.292;23.146;2024-02-04T14:09:11;6.63;;;3.22;;
69569;SDS011;56781;42.292;23.146;2024-02-04T14:11:40;7.82;;;4.22;;
69569;SDS011;56781;42.292;23.146;2024-02-04T14:14:09;6.88;;;3.40;;
69569;SDS011;56781;42.292;23.146;2024-02-04T14:16:40;8.50;;;3.90;;
69569;SDS011;56781;42.292;23.146;2024-02-04T14:19:13;7.30;;;3.22;;
69569;SDS011;56781;42.292;23.146;2024-02-04T14:21:42;17.77;;;9.52;;
69569;SDS011;56781;42.292;23.146;2024-02-04T14:24:11;10.43;;;4.57;;
69569;SDS011;56781;42.292;23.146;2024-02-04T14:26:40;11.23;;;5.32;;
69569;SDS011;56781;42.292;23.146;2024-02-04T14:29:09;13.53;;;6.40;;